Time;durP1;ratioP1;P1;durP2;ratioP2;P2;SDS_P1;SDS_P2;PMS_P1;PMS_P2;Temp;Humidity;BMP_temperature;BMP_pressure;BME280_temperature;BME280_humidity;BME280_pressure;Samples;Min_cycle;Max_cycle;Signal;HPM_P1;HPM_P2
2022/01/02 00:00:01;;;;;;;22.25;11.60;;;13.60;99.90;;;13.82;91.16;101594.81;5072372;28;20036;-69
2022/01/02 00:02:33;;;;;;;18.33;11.20;;;13.60;99.90;;;13.72;91.30;101573.63;5072021;28;20836;-68
2022/01/02 00:05:05;;;;;;;20.92;10.35;;;13.50;99.90;;;13.70;92.10;101576.28;5071944;28;20056;-72
2022/01/02 00:07:42;;;;;;;21.85;11.38;;;13.50;99.90;;;13.69;92.63;101566.53;5071848;28;20048;-70
2022/01/02 00:10:13;;;;;;;23.05;11.60;;;13.50;99.90;;;13.65;93.00;101567.44;5071870;28;20050;-68
2022/01/02 00:12:50;;;;;;;24.35;11.38;;;13.50;99.90;;;13.71;93.31;101579.81;5072173;28;20390;-67
2022/01/02 00:15:21;;;;;;;23.50;11.48;;;13.40;99.90;;;13.71;93.46;101571.81;5072191;28;20044;-68
2022/01/02 00:17:52;;;;;;;20.02;11.75;;;13.50;99.90;;;13.70;93.75;101578.94;5071787;28;20044;-67
2022/01/02 00:20:31;;;;;;;18.80;10.52;;;13.50;99.90;;;13.73;93.29;101575.38;5071817;28;20056;-68
2022/01/02 00:23:02;;;;;;;22.20;12.18;;;13.50;99.90;;;13.81;93.35;101573.53;5071757;28;20040;-68
2022/01/02 00:25:34;;;;;;;24.02;11.02;;;13.60;99.90;;;13.87;93.15;101585.03;5071675;28;20049;-69
2022/01/02 00:28:07;;;;;;;18.45;11.32;;;13.60;99.90;;;13.88;93.42;101562.00;5071717;28;20053;-69
2022/01/02 00:30:45;;;;;;;20.13;11.25;;;13.60;99.90;;;13.94;93.69;101557.50;5071894;28;20402;-69
2022/01/02 00:33:13;;;;;;;15.45;11.32;;;13.70;99.90;;;13.92;93.68;101551.31;5071947;28;20051;-69
2022/01/02 00:35:42;;;;;;;16.75;11.43;;;13.70;99.90;;;13.92;93.91;101553.97;5072142;28;20040;-69
2022/01/02 00:38:22;;;;;;;23.48;11.57;;;13.70;99.90;;;13.92;94.06;101550.41;5071699;28;20032;-69
2022/01/02 00:40:54;;;;;;;17.25;10.82;;;13.70;99.90;;;13.93;94.09;101547.78;5071910;28;20057;-69
2022/01/02 00:43:39;;;;;;;22.40;11.35;;;13.70;99.90;;;13.88;94.32;101536.25;5071580;28;20049;-69
2022/01/02 00:46:11;;;;;;;22.10;10.93;;;13.70;99.90;;;13.05;94.06;101366.75;5071599;28;20075;-69
2022/01/02 00:48:43;;;;;;;17.73;10.27;;;13.70;99.90;;;13.82;94.22;101522.16;5071992;28;20054;-69
2022/01/02 00:51:26;;;;;;;23.08;11.90;;;13.60;99.90;;;13.78;94.54;101521.25;5071786;28;20045;-69
2022/01/02 00:53:58;;;;;;;18.60;10.30;;;13.60;99.90;;;13.78;94.62;101528.38;5071771;28;20063;-69
2022/01/02 00:56:29;;;;;;;19.55;10.57;;;13.50;99.90;;;13.48;95.01;101465.66;5072051;28;20098;-69
2022/01/02 00:59:04;;;;;;;24.35;11.45;;;13.50;99.90;;;13.75;95.37;101512.44;5071662;28;20115;-69
2022/01/02 01:01:35;;;;;;;21.90;10.02;;;13.50;99.90;;;13.43;95.34;101460.34;5071972;28;20037;-69
2022/01/02 01:04:07;;;;;;;23.10;10.18;;;13.60;99.90;;;13.74;95.31;101503.59;5087145;28;20491;-69
2022/01/02 01:06:41;;;;;;;19.33;10.75;;;13.60;99.90;;;13.80;95.09;101494.69;5086761;28;20044;-69
2022/01/02 01:09:09;;;;;;;21.85;10.05;;;13.60;99.90;;;13.86;94.97;101479.53;5071333;28;20110;-69
2022/01/02 01:11:38;;;;;;;18.42;9.05;;;13.60;99.90;;;13.89;95.10;101471.56;5070059;28;20045;-69
2022/01/02 01:14:08;;;;;;;25.23;9.13;;;13.60;99.90;;;13.90;95.25;101473.31;5070186;28;20124;-68
2022/01/02 01:16:37;;;;;;;20.33;9.55;;;13.70;99.90;;;13.89;95.06;101452.03;5071996;28;20109;-69
2022/01/02 01:19:07;;;;;;;22.63;9.35;;;13.80;99.90;;;13.97;94.86;101453.75;5069876;28;20491;-69
2022/01/02 01:21:36;;;;;;;19.13;8.68;;;13.80;99.90;;;14.00;94.97;101471.44;5070981;28;20045;-68
2022/01/02 01:24:05;;;;;;;22.38;9.88;;;13.80;99.90;;;14.05;94.88;101454.53;5071317;28;20063;-71
2022/01/02 01:26:33;;;;;;;18.77;8.93;;;13.80;99.90;;;14.10;94.39;101459.84;5071020;28;20053;-68
2022/01/02 01:29:02;;;;;;;19.73;9.07;;;13.90;99.90;;;13.79;94.03;101378.56;5070987;28;20473;-70
2022/01/02 01:31:32;;;;;;;19.80;9.40;;;13.90;99.90;;;14.19;94.05;101449.97;5070941;28;20047;-69
2022/01/02 01:34:01;;;;;;;24.05;8.93;;;14.00;99.90;;;14.25;93.50;101457.00;5069867;28;20098;-69
2022/01/02 01:36:30;;;;;;;19.98;8.60;;;14.00;99.90;;;14.26;93.02;101459.69;5103290;28;20143;-69
2022/01/02 01:38:58;;;;;;;17.60;9.55;;;14.00;99.90;;;13.61;92.95;101349.50;5071094;28;20047;-70
2022/01/02 01:41:33;;;;;;;24.02;9.02;;;14.00;99.90;;;14.20;92.60;101425.16;5053229;28;20121;-69
2022/01/02 01:44:21;;;;;;;19.63;9.18;;;14.10;99.90;;;14.35;92.10;101434.78;5069529;28;20045;-69
2022/01/02 01:46:54;;;;;;;19.58;9.32;;;14.10;99.90;;;14.39;91.91;101439.16;5070758;28;20478;-70
2022/01/02 01:49:29;;;;;;;20.73;9.77;;;14.20;99.90;;;14.43;91.52;101433.81;5070054;28;20406;-69
2022/01/02 01:51:59;;;;;;;23.52;9.27;;;14.20;99.90;;;14.43;91.39;101435.56;5069373;28;20188;-70
2022/01/02 01:54:28;;;;;;;22.83;8.93;;;14.20;99.90;;;14.45;91.28;101434.66;5069966;28;20428;-69
2022/01/02 01:56:56;;;;;;;18.33;9.40;;;14.20;99.90;;;14.45;91.09;101428.47;5086475;28;20433;-69
2022/01/02 01:59:28;;;;;;;21.75;9.00;;;14.20;99.90;;;14.48;90.98;101413.31;5072820;28;20097;-70
2022/01/02 02:01:59;;;;;;;23.65;10.27;;;14.20;99.90;;;14.51;90.82;101407.09;5074406;28;20048;-69
2022/01/02 02:04:28;;;;;;;16.77;8.65;;;14.30;99.90;;;14.49;90.79;101424.88;5090218;28;20048;-69
2022/01/02 02:06:59;;;;;;;22.05;9.43;;;14.20;99.90;;;14.55;90.74;101414.16;5107100;28;20032;-70
2022/01/02 02:09:36;;;;;;;21.20;9.10;;;14.30;99.90;;;14.60;91.02;101409.63;5073208;28;20098;-69
2022/01/02 02:12:06;;;;;;;19.95;8.93;;;14.30;99.90;;;14.61;90.67;101398.09;5074318;28;20048;-70
2022/01/02 02:14:39;;;;;;;22.70;9.15;;;14.40;99.90;;;14.59;90.85;101407.00;5073446;28;20048;-69
2022/01/02 02:17:09;;;;;;;24.98;8.95;;;14.40;99.90;;;14.55;90.69;101406.16;5073696;28;20454;-69
2022/01/02 02:19:37;;;;;;;17.40;9.02;;;14.30;99.90;;;14.61;90.58;101426.50;5073159;28;20104;-72
2022/01/02 02:22:07;;;;;;;27.30;10.32;;;14.30;99.90;;;14.65;90.49;101397.16;5073163;28;20045;-69
2022/01/02 02:24:37;;;;;;;15.80;7.40;;;14.40;99.90;;;14.64;90.39;101398.06;5073183;28;20048;-69
2022/01/02 02:27:05;;;;;;;19.05;8.88;;;14.40;99.90;;;14.68;90.44;101397.13;5073107;28;20037;-69
2022/01/02 02:29:34;;;;;;;19.73;8.93;;;14.40;99.90;;;14.65;90.02;101383.84;5106704;28;20056;-69
2022/01/02 02:32:02;;;;;;;12.35;7.20;;;14.40;99.90;;;14.70;90.12;101397.97;5072769;28;20058;-68
2022/01/02 02:34:31;;;;;;;16.80;8.35;;;14.50;99.90;;;14.80;89.94;101386.31;5074374;28;20086;-69
2022/01/02 02:36:59;;;;;;;17.50;7.75;;;14.50;99.90;;;14.76;89.59;101389.91;5074098;28;20044;-68
2022/01/02 02:39:33;;;;;;;21.50;8.07;;;14.50;99.90;;;14.79;89.27;101365.03;5072127;28;20528;-69
2022/01/02 02:42:10;;;;;;;19.35;7.68;;;14.50;99.90;;;14.76;89.23;101341.97;5074051;28;20047;-69
2022/01/02 02:44:40;;;;;;;16.00;8.30;;;14.50;99.90;;;14.76;89.26;101357.94;5072519;28;20106;-70
2022/01/02 02:49:55;;;;;;;21.92;8.07;;;14.60;99.90;;;14.86;88.79;101359.59;5073777;28;20053;-70
2022/01/02 02:52:34;;;;;;;20.90;7.80;;;14.60;99.90;;;14.93;88.58;101360.38;5073364;28;20053;-69
2022/01/02 02:55:05;;;;;;;14.52;7.45;;;14.70;99.90;;;14.78;88.61;101357.91;5072286;28;20045;-69
2022/01/02 02:57:34;;;;;;;;;;;14.70;99.90;;;14.91;88.62;101375.50;5073704;28;20040;-69
2022/01/02 03:00:03;;;;;;;18.23;6.88;;;14.70;99.90;;;14.76;88.52;101365.94;5088823;28;19920;-69
2022/01/02 03:02:33;;;;;;;15.50;7.38;;;14.60;99.90;;;14.76;88.83;101376.59;5072375;28;20048;-69
2022/01/02 03:05:02;;;;;;;16.15;7.10;;;14.60;99.90;;;14.75;89.31;101368.63;5071979;28;20052;-69
2022/01/02 03:07:31;;;;;;;18.20;7.25;;;14.50;99.90;;;14.74;89.67;101356.19;5071589;28;20051;-69
2022/01/02 03:10:02;;;;;;;17.73;6.75;;;14.50;99.90;;;14.78;89.81;101345.50;5073270;28;20048;-69
2022/01/02 03:12:32;;;;;;;17.17;7.63;;;14.50;99.90;;;14.71;89.53;101330.47;5105863;28;20059;-69
2022/01/02 03:15:00;;;;;;;24.50;8.00;;;14.50;99.90;;;14.80;89.24;101334.81;5071840;28;20048;-70
2022/01/02 03:17:29;;;;;;;16.60;7.47;;;14.50;99.90;;;14.82;89.16;101333.91;5073741;28;20445;-69
2022/01/02 03:19:57;;;;;;;16.73;8.82;;;14.60;99.90;;;14.80;88.91;101324.16;5071682;28;20110;-69
2022/01/02 03:22:26;;;;;;;20.05;7.75;;;14.60;99.90;;;14.82;88.67;101327.69;5071744;28;20062;-70
2022/01/02 03:24:54;;;;;;;23.15;8.38;;;14.60;99.90;;;14.86;88.16;101324.06;5105511;28;20053;-69
2022/01/02 03:27:24;;;;;;;17.75;8.27;;;14.60;99.90;;;14.83;87.94;101322.34;5073009;28;20437;-69
2022/01/02 03:29:54;;;;;;;14.95;7.43;;;14.60;99.90;;;14.80;87.54;101303.75;5071728;28;20075;-69
2022/01/02 03:32:24;;;;;;;18.45;7.88;;;14.60;99.90;;;14.86;87.67;101310.75;5072952;28;20066;-69
2022/01/02 03:34:53;;;;;;;16.08;7.20;;;14.60;99.90;;;14.89;87.24;101306.25;5071555;28;20439;-69
2022/01/02 03:37:21;;;;;;;17.58;7.45;;;14.70;99.90;;;14.80;87.29;101311.72;5071529;28;20044;-69
2022/01/02 03:39:51;;;;;;;14.55;6.97;;;14.60;99.90;;;14.85;86.82;101303.66;5088311;28;20110;-69
2022/01/02 03:42:19;;;;;;;16.42;7.18;;;14.60;99.90;;;14.80;87.14;101302.84;5071435;28;20383;-69
2022/01/02 03:44:48;;;;;;;17.33;7.00;;;14.60;99.90;;;14.74;86.87;101277.19;5071390;28;20047;-69
2022/01/02 03:47:18;;;;;;;16.67;6.43;;;14.60;99.90;;;14.85;86.76;101301.00;5072729;28;20048;-69
2022/01/02 03:49:46;;;;;;;19.42;7.40;;;14.60;99.90;;;14.19;86.61;101178.59;5071663;28;20418;-69
2022/01/02 03:52:16;;;;;;;17.60;6.93;;;14.70;99.90;;;14.95;86.58;101284.88;5071369;28;20086;-69
2022/01/02 03:54:44;;;;;;;13.27;5.85;;;14.70;99.90;;;14.86;86.33;101271.69;5071284;28;20117;-69
2022/01/02 03:57:13;;;;;;;14.50;6.95;;;14.70;99.90;;;14.80;86.28;101266.47;5071229;28;20583;-71
2022/01/02 03:59:42;;;;;;;14.63;7.35;;;14.70;99.90;;;14.79;86.47;101264.69;5070941;28;20518;-69
2022/01/02 04:02:12;;;;;;;14.98;6.72;;;14.60;99.90;;;14.71;86.34;101292.34;5070616;28;20045;-69
2022/01/02 04:04:43;;;;;;;17.42;6.93;;;14.50;99.90;;;14.69;86.66;101272.84;5104944;28;20079;-69
2022/01/02 04:07:12;;;;;;;18.05;7.43;;;14.50;99.90;;;14.70;86.43;101270.16;5070770;28;20040;-69
2022/01/02 04:09:40;;;;;;;15.82;7.28;;;14.50;99.90;;;14.58;86.75;101251.69;5070834;28;20443;-69
2022/01/02 04:12:09;;;;;;;16.80;6.68;;;14.40;99.90;;;14.52;87.29;101273.06;5070429;28;20155;-68
2022/01/02 04:14:38;;;;;;;15.50;7.00;;;14.30;99.90;;;14.52;87.25;101242.94;5070740;28;20060;-69
2022/01/02 04:17:06;;;;;;;17.77;7.60;;;14.30;99.90;;;14.51;87.79;101276.66;5070899;28;20046;-68
2022/01/02 04:19:35;;;;;;;18.63;8.27;;;14.30;99.90;;;14.45;87.80;101276.72;5072016;28;20056;-70
2022/01/02 04:22:05;;;;;;;16.48;7.75;;;14.20;99.90;;;14.46;88.10;101265.16;5070010;28;20418;-68
2022/01/02 04:24:33;;;;;;;17.67;7.77;;;14.20;99.90;;;14.46;88.28;101254.53;5071862;28;20512;-68
2022/01/02 04:27:02;;;;;;;12.90;7.38;;;14.20;99.90;;;14.39;88.73;101251.09;5070596;28;20123;-69
2022/01/02 04:29:30;;;;;;;20.58;7.45;;;14.20;99.90;;;14.32;88.94;101251.19;5070573;28;20072;-70
2022/01/02 04:31:59;;;;;;;15.98;7.82;;;14.10;99.90;;;14.28;89.45;101237.06;5070535;28;20045;-69
2022/01/02 04:34:29;;;;;;;15.98;7.35;;;14.10;99.90;;;14.29;89.22;101230.81;5070415;28;20052;-69
2022/01/02 04:36:58;;;;;;;14.13;6.97;;;14.10;99.90;;;14.27;89.75;101231.69;5070355;28;20130;-69
2022/01/02 04:39:29;;;;;;;17.10;8.02;;;14.10;99.90;;;14.29;89.76;101241.47;5104136;28;20405;-69
2022/01/02 04:41:58;;;;;;;;;;;14.10;99.90;;;14.31;89.89;101217.47;5070925;28;20098;-69
2022/01/02 04:44:27;;;;;;;15.27;7.88;;;14.20;99.90;;;14.32;90.21;101220.13;5071748;28;19931;-69
2022/01/02 04:46:56;;;;;;;12.30;6.25;;;14.10;99.90;;;14.33;90.19;101200.59;5070314;28;20043;-69
2022/01/02 04:49:25;;;;;;;16.13;6.88;;;14.20;99.90;;;14.30;90.36;101215.75;5071689;28;20458;-68
2022/01/02 04:51:54;;;;;;;18.15;7.82;;;14.20;99.90;;;14.33;90.50;101186.41;5103921;28;20059;-69
2022/01/02 04:54:25;;;;;;;13.98;7.22;;;14.10;99.90;;;14.30;90.18;101179.34;5071688;28;20036;-68
2022/01/02 04:56:55;;;;;;;15.32;7.60;;;14.10;99.90;;;14.28;90.34;101186.50;5104301;28;20470;-69
2022/01/02 04:59:23;;;;;;;15.75;7.63;;;14.10;99.90;;;14.33;90.11;101174.00;5070339;28;20048;-69
2022/01/02 05:01:52;;;;;;;14.52;7.10;;;14.10;99.90;;;14.33;90.29;101168.66;5071421;28;20173;-68
2022/01/02 05:04:21;;;;;;;13.82;7.15;;;14.10;99.90;;;14.31;90.63;101172.25;5104074;28;20052;-69
2022/01/02 05:06:50;;;;;;;13.20;7.22;;;14.10;99.90;;;14.29;90.07;101160.75;5071703;28;20037;-68
2022/01/02 05:09:19;;;;;;;12.60;7.10;;;14.10;99.90;;;14.30;90.25;101160.72;5070213;28;20053;-69
2022/01/02 05:11:47;;;;;;;14.70;7.40;;;14.10;99.90;;;14.31;90.31;101156.28;5070406;28;20496;-68
2022/01/02 05:14:17;;;;;;;14.23;7.47;;;14.10;99.90;;;14.31;90.52;101133.22;5071746;28;20532;-69
2022/01/02 05:16:45;;;;;;;15.23;6.68;;;14.10;99.90;;;14.32;90.74;101152.72;5070557;28;20409;-69
2022/01/02 05:19:15;;;;;;;16.30;7.53;;;14.10;99.90;;;14.31;91.37;101132.31;5070484;28;20052;-68
2022/01/02 05:21:43;;;;;;;11.70;6.32;;;14.10;99.90;;;14.27;91.62;101125.25;5070238;28;20737;-68
2022/01/02 05:24:12;;;;;;;18.55;7.40;;;14.10;99.90;;;14.31;91.54;101127.00;5103759;28;20045;-68
2022/01/02 05:26:43;;;;;;;14.85;6.28;;;14.10;99.90;;;14.30;91.15;101104.81;5070019;28;20044;-68
2022/01/02 05:29:12;;;;;;;12.43;6.68;;;14.10;99.90;;;14.28;90.65;101090.69;5069901;28;20049;-69
2022/01/02 05:31:42;;;;;;;15.25;7.13;;;14.10;99.90;;;14.37;90.87;101108.28;5086862;28;20052;-69
2022/01/02 05:34:10;;;;;;;9.70;6.93;;;14.10;99.90;;;14.38;90.56;101091.44;5071560;28;20560;-69
2022/01/02 05:36:39;;;;;;;12.25;7.30;;;14.20;99.90;;;14.34;90.42;101111.00;5090587;28;20045;-70
2022/01/02 05:39:08;;;;;;;10.75;6.53;;;14.10;99.90;;;14.31;90.22;101084.44;5073616;28;20045;-68
2022/01/02 05:41:37;;;;;;;13.25;7.45;;;14.10;99.90;;;14.30;89.94;101096.00;5073511;28;20052;-69
2022/01/02 05:44:06;;;;;;;12.07;7.28;;;14.10;99.90;;;14.25;89.72;101073.84;5073205;28;20080;-69
2022/01/02 05:46:35;;;;;;;12.65;8.07;;;14.10;99.90;;;14.19;89.75;101074.81;5073289;28;20056;-68
2022/01/02 05:49:05;;;;;;;15.43;8.23;;;14.00;99.90;;;14.12;89.60;101082.94;5073496;28;20049;-68
2022/01/02 05:51:34;;;;;;;;;;;14.00;99.90;;;14.12;89.51;101061.66;5073652;28;20044;-69
2022/01/02 05:54:03;;;;;;;12.07;7.75;;;13.90;99.90;;;14.14;89.54;101081.13;5090295;28;19920;-68
2022/01/02 05:56:32;;;;;;;11.25;7.40;;;13.90;99.90;;;14.12;89.41;101073.19;5090219;28;20044;-69
2022/01/02 05:59:01;;;;;;;14.65;8.98;;;13.90;99.90;;;14.03;89.55;101060.00;5072989;28;20135;-68
2022/01/02 06:01:30;;;;;;;15.95;8.73;;;13.90;99.90;;;14.02;89.49;101044.97;5089981;28;20103;-68
2022/01/02 06:04:00;;;;;;;14.65;8.43;;;13.90;99.90;;;14.03;89.40;101035.22;5073200;28;20040;-69
2022/01/02 06:06:30;;;;;;;14.40;8.77;;;13.80;99.90;;;14.02;89.37;101029.00;5074564;28;20052;-69
2022/01/02 06:09:00;;;;;;;18.23;8.57;;;13.80;99.90;;;13.89;89.57;101029.22;5107141;28;20095;-69
2022/01/02 06:11:30;;;;;;;11.25;7.55;;;13.80;99.90;;;13.88;89.87;101014.19;5073041;28;20575;-69
2022/01/02 06:13:59;;;;;;;11.80;7.60;;;13.70;99.90;;;13.87;89.67;101013.28;5074399;28;20044;-68
2022/01/02 06:16:28;;;;;;;14.43;8.05;;;13.70;99.90;;;13.85;89.53;101009.78;5073125;28;20060;-69
2022/01/02 06:18:57;;;;;;;12.77;7.30;;;13.70;99.90;;;13.55;89.27;100925.16;5073239;28;20147;-69
2022/01/02 06:21:26;;;;;;;10.73;7.95;;;13.70;99.90;;;13.93;89.05;100985.72;5074019;28;20432;-68
2022/01/02 06:23:56;;;;;;;14.43;7.95;;;13.80;99.90;;;13.99;88.58;100985.63;5090032;28;20433;-69
2022/01/02 06:26:24;;;;;;;11.88;7.60;;;13.80;99.90;;;13.97;88.29;100992.75;5074344;28;20095;-68
2022/01/02 06:28:53;;;;;;;14.60;8.05;;;13.80;99.90;;;13.95;88.16;100971.50;5074303;28;20089;-68
2022/01/02 06:31:21;;;;;;;12.90;7.95;;;13.80;99.90;;;13.98;87.41;100976.75;5073012;28;20064;-69
2022/01/02 06:33:51;;;;;;;15.18;7.82;;;13.80;99.90;;;13.96;87.11;100977.69;5089426;28;20033;-69
2022/01/02 06:36:19;;;;;;;13.02;7.53;;;13.80;99.90;;;14.05;87.20;100970.41;5072677;28;20075;-69
2022/01/02 06:38:48;;;;;;;12.32;7.18;;;13.80;99.90;;;14.00;87.28;100972.28;5073898;28;20044;-69
2022/01/02 06:41:18;;;;;;;13.10;7.30;;;13.80;99.90;;;14.07;87.27;100973.09;5074204;28;20041;-68
2022/01/02 06:43:51;;;;;;;15.13;7.37;;;13.90;99.90;;;14.06;86.64;100987.25;5074769;28;20056;-69
2022/01/02 06:46:22;;;;;;;14.35;8.10;;;13.90;99.90;;;14.07;86.31;100967.75;5106480;28;20377;-69
2022/01/02 06:48:50;;;;;;;11.52;7.38;;;13.90;99.90;;;14.07;86.24;100954.47;5072365;28;20063;-69
2022/01/02 06:51:39;;;;;;;13.23;7.00;;;13.90;99.90;;;14.06;85.69;100965.97;5072236;28;20155;-69
2022/01/02 06:54:07;;;;;;;13.27;6.80;;;13.90;99.90;;;14.04;85.64;100963.34;5105786;28;20040;-69
2022/01/02 06:56:37;;;;;;;10.90;5.93;;;13.90;99.90;;;14.00;85.91;100977.63;5072506;28;20056;-69
2022/01/02 06:59:06;;;;;;;10.90;6.70;;;13.80;99.90;;;14.00;85.56;100950.13;5073676;28;20453;-70
2022/01/02 07:01:34;;;;;;;11.70;7.32;;;13.90;99.90;;;14.05;85.64;100943.81;5106009;28;20056;-69
2022/01/02 07:04:03;;;;;;;11.60;6.18;;;13.90;99.90;;;14.10;85.27;100967.69;5072076;28;20076;-69
2022/01/02 07:06:32;;;;;;;12.00;6.90;;;13.90;99.90;;;14.07;85.20;100983.72;5072062;28;20118;-69
2022/01/02 07:09:01;;;;;;;8.88;6.75;;;13.90;99.90;;;14.08;84.77;100974.81;5072027;28;20040;-68
2022/01/02 07:11:30;;;;;;;14.70;7.68;;;13.90;99.90;;;14.08;85.00;100949.09;5073145;28;20121;-69
2022/01/02 07:13:59;;;;;;;14.13;7.35;;;13.90;99.90;;;14.06;85.54;100965.97;5073305;28;20547;-69
2022/01/02 07:16:28;;;;;;;9.93;6.70;;;13.90;99.90;;;14.12;85.62;100971.22;5073118;28;20102;-69
2022/01/02 07:18:56;;;;;;;13.07;7.85;;;13.90;99.90;;;14.09;86.00;100976.59;5072171;28;20053;-69
2022/01/02 07:21:24;;;;;;;9.07;7.78;;;13.90;99.90;;;14.04;86.62;100983.75;5072849;28;20072;-69
2022/01/02 07:23:54;;;;;;;13.07;8.10;;;13.90;99.90;;;14.04;87.00;100987.31;5073417;28;20036;-69
2022/01/02 07:26:23;;;;;;;12.30;7.33;;;13.90;99.90;;;13.96;87.27;100985.66;5073340;28;20078;-69
2022/01/02 07:28:51;;;;;;;15.00;8.05;;;13.80;99.90;;;13.90;87.56;100991.09;5072611;28;20326;-68
2022/01/02 07:31:21;;;;;;;16.67;7.93;;;13.70;99.90;;;13.90;88.04;100980.47;5072615;28;20068;-69
2022/01/02 07:33:49;;;;;;;15.95;8.40;;;13.70;99.90;;;13.83;88.28;100976.13;5072862;28;20051;-69
2022/01/02 07:36:18;;;;;;;12.18;8.70;;;13.60;99.90;;;13.82;88.86;100967.25;5072604;28;20044;-68
2022/01/02 07:38:46;;;;;;;12.95;7.70;;;13.60;99.90;;;13.82;89.11;100966.41;5072486;28;20044;-68
2022/01/02 07:41:15;;;;;;;13.20;8.02;;;13.60;99.90;;;13.13;89.41;100860.28;5072404;28;20063;-68
2022/01/02 07:43:43;;;;;;;18.23;8.57;;;13.50;99.90;;;13.72;89.63;100983.41;5072478;28;20049;-68
2022/01/02 07:46:12;;;;;;;12.45;7.45;;;13.50;99.90;;;13.71;90.09;100963.03;5072712;28;20033;-69
2022/01/02 07:48:42;;;;;;;17.45;7.70;;;13.50;99.90;;;13.68;90.52;100957.75;5072382;28;20427;-69
2022/01/02 07:51:10;;;;;;;18.97;7.63;;;13.50;99.90;;;13.67;91.11;100951.56;5072529;28;20105;-69
2022/01/02 07:53:39;;;;;;;13.65;7.63;;;13.40;99.90;;;13.68;91.44;100950.69;5072401;28;20538;-68
2022/01/02 07:56:07;;;;;;;14.90;7.65;;;13.40;99.90;;;13.73;92.09;100955.91;5071905;28;20079;-68
2022/01/02 07:58:35;;;;;;;14.68;7.95;;;13.50;99.90;;;13.71;92.07;100949.72;5072277;28;20048;-69
2022/01/02 08:01:04;;;;;;;15.23;8.43;;;13.50;99.90;;;13.74;92.68;100965.66;5088009;28;20350;-69
2022/01/02 08:03:32;;;;;;;15.50;8.85;;;13.50;99.90;;;13.70;92.79;100961.28;5072395;28;20418;-69
2022/01/02 08:06:02;;;;;;;10.75;8.55;;;13.50;99.90;;;13.72;92.92;100976.31;5072156;28;20412;-70
2022/01/02 08:08:31;;;;;;;16.83;8.03;;;13.50;99.90;;;13.74;92.80;100969.19;5072142;28;20056;-69
2022/01/02 08:10:59;;;;;;;13.95;9.32;;;13.50;99.90;;;13.65;92.77;100963.13;5072836;28;20076;-69
2022/01/02 08:13:27;;;;;;;14.63;8.15;;;13.50;99.90;;;13.62;92.94;100953.44;5072522;28;20052;-69
2022/01/02 08:15:56;;;;;;;12.07;8.60;;;13.40;99.90;;;13.65;93.09;100965.78;5072085;28;20044;-69
2022/01/02 08:18:24;;;;;;;15.35;8.65;;;13.40;99.90;;;13.53;92.98;100965.06;5072064;28;20119;-69
2022/01/02 08:20:53;;;;;;;19.38;8.85;;;13.30;99.90;;;13.49;92.81;100973.97;5072282;28;20068;-69
2022/01/02 08:23:22;;;;;;;14.30;8.70;;;13.30;99.90;;;13.47;92.59;100949.19;5071968;28;20072;-68
2022/01/02 08:26:11;;;;;;;17.75;9.40;;;13.30;99.90;;;13.46;92.03;100967.84;5070619;28;20456;-68
2022/01/02 08:28:39;;;;;;;11.40;9.65;;;13.20;99.90;;;13.49;91.36;100958.03;5071654;28;20041;-69
2022/01/02 08:31:08;;;;;;;17.17;9.65;;;13.30;99.90;;;13.50;90.90;100959.81;5071655;28;20571;-70
2022/01/02 08:33:36;;;;;;;14.50;9.38;;;13.30;99.90;;;13.47;90.76;100969.59;5071619;28;20040;-69
2022/01/02 08:36:06;;;;;;;14.73;9.95;;;13.30;99.90;;;13.61;89.66;100969.41;5071537;28;20222;-69
2022/01/02 08:38:36;;;;;;;15.43;9.70;;;13.30;99.90;;;13.56;88.67;100946.44;5071566;28;20052;-68
2022/01/02 08:41:05;;;;;;;15.80;10.05;;;13.40;99.90;;;13.64;88.44;100953.41;5071521;28;20282;-70
2022/01/02 08:43:34;;;;;;;14.02;8.88;;;13.40;99.90;;;13.57;88.07;100960.56;5071518;28;20102;-68
2022/01/02 08:46:03;;;;;;;13.63;10.00;;;13.40;99.90;;;13.56;87.72;100966.81;5071546;28;20532;-68
2022/01/02 08:48:31;;;;;;;16.85;9.30;;;13.40;99.90;;;13.54;87.46;100950.00;5071528;28;20517;-69
2022/01/02 08:51:00;;;;;;;13.60;9.30;;;13.30;99.90;;;13.62;87.61;100957.84;5071496;28;20120;-70
2022/01/02 08:53:31;;;;;;;18.25;9.43;;;13.40;99.90;;;13.58;87.36;100939.31;5104323;28;20100;-69
2022/01/02 08:56:00;;;;;;;19.08;10.75;;;13.40;99.90;;;13.67;87.46;100958.66;5071846;28;20559;-73
2022/01/02 08:58:29;;;;;;;14.88;10.00;;;13.40;99.90;;;14.00;86.60;100956.34;5071714;28;20227;-73
2022/01/02 09:01:00;;;;;;;12.68;9.18;;;13.60;99.90;;;14.24;85.51;100952.38;5071064;28;20083;-72
2022/01/02 09:03:29;;;;;;;;;;;13.90;99.90;;;14.44;83.58;100974.19;5071614;28;20068;-68
2022/01/02 09:05:58;;;;;;;17.13;9.85;;;14.20;99.90;;;14.63;82.75;100980.06;5071277;28;20409;-71
2022/01/02 09:08:30;;;;;;;17.73;9.73;;;14.30;99.90;;;14.63;81.98;100959.66;5073342;28;20060;-69
2022/01/02 09:10:59;;;;;;;16.05;9.90;;;14.40;99.90;;;14.67;81.74;100982.66;5075048;28;20059;-71
2022/01/02 09:13:28;;;;;;;13.40;9.27;;;14.40;99.90;;;14.76;81.24;100985.13;5075298;28;20080;-70
2022/01/02 09:15:56;;;;;;;13.75;9.75;;;14.50;99.90;;;13.71;81.19;100819.47;5074169;28;20448;-72
2022/01/02 09:18:25;;;;;;;14.80;9.27;;;14.40;99.90;;;14.57;82.02;100975.75;5074008;28;20052;-68
2022/01/02 09:20:53;;;;;;;14.57;9.20;;;14.30;99.90;;;14.64;81.31;100980.03;5075294;28;20051;-72
2022/01/02 09:23:22;;;;;;;17.10;9.60;;;14.40;99.90;;;14.65;81.50;100970.25;5074246;28;20040;-73
2022/01/02 09:25:50;;;;;;;16.52;9.98;;;14.40;99.90;;;14.36;81.89;100976.16;5091286;28;20548;-72
2022/01/02 09:28:20;;;;;;;13.90;8.75;;;14.20;99.90;;;14.45;82.86;100963.53;5075386;28;20040;-74
2022/01/02 09:30:49;;;;;;;16.10;10.20;;;14.20;99.90;;;14.47;82.67;100947.53;5108100;28;20500;-73
2022/01/02 09:33:18;;;;;;;19.33;9.32;;;14.20;99.90;;;14.64;82.38;100965.84;5075364;28;20051;-72
2022/01/02 09:35:46;;;;;;;16.35;9.30;;;14.30;99.90;;;14.90;81.81;100963.53;5075128;28;20131;-72
2022/01/02 09:38:14;;;;;;;14.35;8.88;;;14.60;99.90;;;15.14;81.10;100969.22;5074810;28;20567;-72
2022/01/02 09:40:43;;;;;;;17.38;9.00;;;14.80;99.90;;;15.33;80.20;100967.91;5074949;28;20037;-72
2022/01/02 09:43:12;;;;;;;18.08;9.45;;;15.00;99.90;;;15.09;79.75;100901.84;5074818;28;20090;-74
2022/01/02 09:45:47;;;;;;;15.25;8.63;;;15.20;99.90;;;15.55;78.86;100976.34;5074711;28;20048;-73
2022/01/02 09:48:16;;;;;;;16.90;9.77;;;15.30;99.90;;;15.37;79.06;100971.38;5074765;28;20143;-65
2022/01/02 09:50:47;;;;;;;17.42;9.00;;;15.20;99.90;;;15.05;80.05;100966.78;5075160;28;20486;-70
2022/01/02 09:53:16;;;;;;;13.48;8.82;;;14.90;99.90;;;14.90;81.01;100979.53;5074794;28;20135;-70
2022/01/02 09:55:44;;;;;;;19.17;10.25;;;14.70;99.90;;;14.72;81.99;100980.75;5074449;28;20098;-69
2022/01/02 09:58:13;;;;;;;18.73;9.48;;;14.50;99.90;;;14.57;82.91;100985.50;5074362;28;20054;-67
2022/01/02 10:00:46;;;;;;;15.70;9.07;;;14.30;99.90;;;14.52;83.14;100966.94;5074609;28;20058;-69
2022/01/02 10:03:16;;;;;;;20.55;8.52;;;14.30;99.90;;;14.44;84.14;100971.53;5074630;28;20065;-69
2022/01/02 10:05:57;;;;;;;18.52;8.70;;;14.20;99.90;;;14.31;85.06;100962.91;5074372;28;20079;-68
2022/01/02 10:08:29;;;;;;;22.25;9.23;;;14.10;99.90;;;14.29;85.98;100971.81;5074351;28;20559;-68
2022/01/02 10:11:04;;;;;;;17.50;7.45;;;14.00;99.90;;;14.22;86.29;100962.16;5074246;28;20094;-72
2022/01/02 10:13:46;;;;;;;25.00;9.50;;;14.00;99.90;;;14.19;86.74;100956.88;5074116;28;20045;-70
2022/01/02 10:16:31;;;;;;;21.08;8.52;;;13.90;99.90;;;14.15;87.18;100968.50;5074282;28;20098;-70
2022/01/02 10:19:03;;;;;;;20.05;8.05;;;13.90;99.90;;;14.07;87.84;100938.50;5074236;28;20087;-72